Flight Track Log - Related Links

Times and Time Zones

All times are in EDT time to prevent confusion due to time zone crossing. See the JZA8138 flight status page for this flight to view local times or setup timezone preferences in your user account.

Time Position Orientation Groundspeed Altitude Reporting Facility
EDT Latitude Longitude Course Direction KTS MPH feet Rate Location/Type
Sat 12:24:57 PM 51.0333 -114.1000 360° North 20 23 3,500  Level Edmonton Center
Sat 12:25:57 PM 51.0333 -114.1000 360° North 50 58 3,500  Level Edmonton Center
Sat 12:28:57 PM 51.0500 -114.1000 360° North 20 23 3,500  Level Edmonton Center
Sat 12:30:00 PM 51.1138 -114.0860 90° East  Level Estimated
Sat 12:31:18 PM 51.0833 -114.0333 90° East 20 23 3,500  Level Edmonton Center
Sat 12:33:30 PM 51.0833 -114.0333 279° West 30 35 3,500 24 Level Edmonton Center
Sat 12:35:30 PM 51.0833 -114.0333 279° West 10 12 3,600 467 Climbing Edmonton Center
Sat 12:36:30 PM 51.1167 -114.0333 360° North 120 138 4,900 1,400 Climbing Edmonton Center
Sat 12:37:30 PM 51.1500 -114.0500 343° North 140 161 6,400 1,650 Climbing Edmonton Center
Sat 12:38:30 PM 51.1833 -114.0500 360° North 140 161 8,200 1,750 Climbing Edmonton Center
Sat 12:39:30 PM 51.2333 -114.0333 12° North 150 173 9,900 1,650 Climbing Edmonton Center
Sat 12:40:30 PM 51.2667 -114.0500 343° North 140 161 11,500 1,650 Climbing Edmonton Center
Sat 12:41:30 PM 51.3000 -114.0500 360° North 140 161 13,200 1,500 Climbing Edmonton Center
Sat 12:42:30 PM 51.3500 -114.0667 348° North 150 173 14,500 1,150 Climbing Edmonton Center
Sat 12:43:30 PM 51.4000 -114.0500 12° North 180 207 15,500 750 Climbing Edmonton Center
Sat 12:44:30 PM 51.4500 -114.0500 360° North 200 230 16,000 250 Climbing Edmonton Center
Sat 12:45:30 PM 51.5167 -114.0667 351° North 230 265 16,000  Level Edmonton Center
Sat 12:46:30 PM 51.5833 -114.0833 351° North 250 288 16,000  Level Edmonton Center
Sat 12:47:30 PM 51.6667 -114.0667 North 250 288 16,000  Level Edmonton Center
Sat 12:48:30 PM 51.7333 -114.0833 351° North 250 288 16,000 -50 Level Edmonton Center
Sat 12:49:30 PM 51.8000 -114.1000 351° North 250 288 15,900 -50 Descending Edmonton Center
Sat 12:50:30 PM 51.8833 -114.1167 353° North 250 288 15,900 50 Level Edmonton Center
Sat 12:51:30 PM 51.9500 -114.1333 351° North 250 288 16,000 50 Climbing Edmonton Center
Sat 12:52:30 PM 52.0167 -114.1167 North 260 299 16,000  Level Edmonton Center
Sat 12:53:30 PM 52.0833 -114.1333 351° North 260 299 16,000  Level Edmonton Center
Sat 12:54:30 PM 52.1500 -114.1500 351° North 250 288 16,000  Level Edmonton Center
Sat 12:55:30 PM 52.2333 -114.1500 360° North 250 288 16,000 -50 Level Edmonton Center
Sat 12:56:30 PM 52.3000 -114.1500 360° North 250 288 15,900  Descending Edmonton Center
Sat 12:57:30 PM 52.3667 -114.1667 351° North 250 288 16,000 100 Climbing Edmonton Center
Sat 12:58:30 PM 52.4333 -114.1667 360° North 250 288 16,100 50 Climbing Edmonton Center
Sat 12:59:30 PM 52.5000 -114.1667 360° North 250 288 16,100  Level Edmonton Center
Sat 01:00:30 PM 52.5667 -114.1667 360° North 250 288 16,100 -100 Level Edmonton Center
Sat 01:01:30 PM 52.6500 -114.1167 20° North 260 299 15,900 -500 Descending Edmonton Center
Sat 01:02:30 PM 52.7167 -114.0833 17° North 260 299 15,100 -900 Descending Edmonton Center
Sat 01:03:30 PM 52.7833 -114.0333 24° Northeast 270 311 14,100 -950 Descending Edmonton Center
Sat 01:04:30 PM 52.8667 -114.0333 360° North 260 299 13,200 -750 Descending Edmonton Center
Sat 01:05:30 PM 52.9333 -113.9833 24° Northeast 260 299 12,600 -950 Descending Edmonton Center
Sat 01:06:30 PM 53.0000 -113.9667 North 240 276 11,300 -1,050 Descending Edmonton Center
Sat 01:07:30 PM 53.0667 -113.9333 17° North 240 276 10,500 -1,100 Descending Edmonton Center
Sat 01:08:30 PM 53.1333 -113.9167 North 250 288 9,100 -1,350 Descending Edmonton Center
Sat 01:09:30 PM 53.2000 -113.8500 31° Northeast 250 288 7,800 -1,350 Descending Edmonton Center
Sat 01:10:30 PM 53.2500 -113.8000 31° Northeast 240 276 6,400 -1,400 Descending Edmonton Center
Sat 01:11:30 PM 53.3000 -113.7333 39° Northeast 220 253 5,000 -950 Descending Edmonton Center
Sat 01:12:30 PM 53.3333 -113.6833 42° Northeast 190 219 4,500 -250 Descending Edmonton Center
Sat 01:13:30 PM 53.4000 -113.6333 24° Northeast 190 219 4,500  Level Edmonton Center
Sat 01:14:30 PM 53.4333 -113.5833 42° Northeast 200 230 4,500 50 Level Edmonton Center
Sat 01:15:30 PM 53.4667 -113.5333 42° Northeast 190 219 4,600 50 Climbing Edmonton Center
Sat 01:16:30 PM 53.4500 -113.4500 109° East 220 253 4,600 -100 Level Edmonton Center
Sat 01:17:30 PM 53.4000 -113.4667 191° South 180 207 4,400 -200 Descending Edmonton Center

Login

Don't have an account? Register now (free) for customized features, flight alerts, and more!